createdAt,value
2022-11-24T00:01:17.358Z,98.10
2022-11-24T00:03:45.342Z,98.30
2022-11-24T00:06:14.898Z,100.20
2022-11-24T00:08:44.331Z,98.10
2022-11-24T00:11:20.715Z,96.30
2022-11-24T00:13:47.862Z,109.50
2022-11-24T00:16:21.000Z,98.30
2022-11-24T00:18:51.037Z,97.20
2022-11-24T00:21:19.231Z,97.20
2022-11-24T00:23:46.744Z,97.00
2022-11-24T00:26:23.031Z,90.90
2022-11-24T00:28:51.756Z,95.70
2022-11-24T00:31:21.751Z,92.60
2022-11-24T00:33:52.246Z,105.10
2022-11-24T00:36:20.350Z,100.80
2022-11-24T00:38:47.370Z,100.80
2022-11-24T00:41:14.135Z,97.20
2022-11-24T00:43:40.669Z,93.50
2022-11-24T00:46:07.327Z,99.70
2022-11-24T00:48:34.062Z,99.60
2022-11-24T00:51:06.316Z,97.00
2022-11-24T00:53:33.481Z,93.40
2022-11-24T00:56:00.423Z,92.90
2022-11-24T00:58:27.170Z,95.80
2022-11-24T01:00:53.974Z,96.50
2022-11-24T01:03:22.101Z,96.20
2022-11-24T01:05:48.736Z,100.00
2022-11-24T01:08:15.325Z,103.90
2022-11-24T01:10:41.844Z,105.70
2022-11-24T01:13:08.712Z,105.30
2022-11-24T01:15:36.111Z,99.50
2022-11-24T01:18:03.867Z,104.80
2022-11-24T01:20:31.384Z,101.50
2022-11-24T01:22:58.001Z,105.70
2022-11-24T01:25:24.741Z,95.40
2022-11-24T01:27:51.327Z,88.80
2022-11-24T01:30:18.026Z,101.10
2022-11-24T01:32:44.467Z,105.70
2022-11-24T01:35:10.915Z,103.60
2022-11-24T01:37:37.387Z,103.90
2022-11-24T01:40:05.171Z,108.20
2022-11-24T01:42:50.901Z,100.60
2022-11-24T01:45:27.827Z,106.40
2022-11-24T01:47:54.833Z,102.30
2022-11-24T01:50:21.878Z,110.30
2022-11-24T01:52:52.732Z,102.00
2022-11-24T01:55:29.277Z,101.70
2022-11-24T01:58:05.144Z,104.40
2022-11-24T02:00:33.313Z,109.00
2022-11-24T02:02:59.779Z,108.70
2022-11-24T02:05:36.262Z,104.80
2022-11-24T02:08:04.653Z,112.10
2022-11-24T02:10:31.281Z,114.30
2022-11-24T02:12:59.069Z,115.00
2022-11-24T02:15:26.262Z,111.10
2022-11-24T02:17:52.824Z,115.60
2022-11-24T02:20:19.391Z,113.10
2022-11-24T02:23:06.882Z,109.50
2022-11-24T02:25:51.483Z,113.70
2022-11-24T02:28:20.828Z,120.50
2022-11-24T02:30:48.122Z,113.50
2022-11-24T02:33:14.693Z,122.30
2022-11-24T02:35:41.433Z,111.90
2022-11-24T02:38:12.973Z,115.10
2022-11-24T02:40:43.085Z,128.80
2022-11-24T02:43:17.520Z,118.30
2022-11-24T02:45:44.010Z,113.30
2022-11-24T02:48:10.493Z,113.60
2022-11-24T02:50:37.261Z,120.00
2022-11-24T02:53:03.763Z,119.70
2022-11-24T02:55:30.279Z,109.90
2022-11-24T02:57:56.848Z,115.00
2022-11-24T03:00:23.374Z,117.70
2022-11-24T03:02:49.924Z,116.80
2022-11-24T03:05:17.440Z,119.40
2022-11-24T03:07:43.966Z,112.30
2022-11-24T03:10:10.455Z,104.40
2022-11-24T03:12:37.096Z,113.50
2022-11-24T03:15:05.532Z,127.40
2022-11-24T03:17:31.985Z,114.00
2022-11-24T03:20:04.544Z,119.70
2022-11-24T03:22:31.941Z,119.40
2022-11-24T03:24:58.676Z,125.60
2022-11-24T03:27:25.646Z,125.40
2022-11-24T03:29:52.074Z,122.90
2022-11-24T03:32:18.662Z,121.40
2022-11-24T03:34:45.128Z,119.70
2022-11-24T03:37:11.566Z,128.40
2022-11-24T03:39:38.152Z,118.80
2022-11-24T03:42:04.836Z,122.50
2022-11-24T03:44:31.501Z,119.10
2022-11-24T03:46:58.201Z,117.90
2022-11-24T03:49:24.757Z,123.00
2022-11-24T03:51:51.182Z,113.50
2022-11-24T03:54:17.720Z,114.60
2022-11-24T03:56:44.226Z,125.00
2022-11-24T03:59:10.636Z,117.70
2022-11-24T04:01:37.098Z,108.60
2022-11-24T04:04:03.859Z,129.20
2022-11-24T04:06:30.302Z,111.70
2022-11-24T04:08:56.812Z,122.40
2022-11-24T04:11:42.064Z,116.90
2022-11-24T04:14:13.371Z,113.90
2022-11-24T04:16:40.924Z,116.30
2022-11-24T04:19:07.429Z,124.80
2022-11-24T04:21:33.901Z,114.50
2022-11-24T04:24:00.341Z,110.90
2022-11-24T04:26:27.890Z,123.00
2022-11-24T04:28:54.488Z,116.60
2022-11-24T04:31:21.184Z,106.20
2022-11-24T04:33:47.765Z,119.30
2022-11-24T04:36:14.221Z,120.50
2022-11-24T04:39:19.451Z,115.60
2022-11-24T04:41:27.279Z,105.30
2022-11-24T04:43:53.775Z,113.90
2022-11-24T04:46:20.272Z,120.20
2022-11-24T04:48:46.867Z,110.40
2022-11-24T04:51:14.674Z,108.50
2022-11-24T04:53:41.504Z,120.40
2022-11-24T04:56:08.644Z,111.60
2022-11-24T04:58:35.558Z,119.80
2022-11-24T05:01:06.173Z,106.30
2022-11-24T05:03:32.705Z,115.30
2022-11-24T05:05:59.564Z,108.20
2022-11-24T05:08:26.456Z,125.00
2022-11-24T05:10:52.853Z,114.90
2022-11-24T05:13:19.362Z,107.40
2022-11-24T05:15:45.989Z,111.70
2022-11-24T05:18:16.981Z,120.80
2022-11-24T05:20:44.148Z,123.20
2022-11-24T05:23:11.335Z,117.70
2022-11-24T05:25:37.931Z,118.70
2022-11-24T05:28:09.318Z,105.50
2022-11-24T05:30:40.192Z,111.80
2022-11-24T05:33:10.883Z,117.60
2022-11-24T05:35:37.400Z,128.10
2022-11-24T05:38:04.161Z,115.90
2022-11-24T05:40:31.556Z,105.30
2022-11-24T05:42:58.919Z,113.70
2022-11-24T05:45:25.548Z,111.20
2022-11-24T05:47:52.625Z,116.50
2022-11-24T05:50:21.545Z,113.90
2022-11-24T05:52:49.181Z,116.00
2022-11-24T05:55:18.716Z,112.40
2022-11-24T05:57:45.328Z,122.70
2022-11-24T06:00:12.629Z,128.60
2022-11-24T06:02:39.366Z,136.30
2022-11-24T06:05:06.672Z,125.50
2022-11-24T06:07:33.244Z,109.30
2022-11-24T06:09:59.781Z,115.60
2022-11-24T06:12:26.277Z,117.70
2022-11-24T06:14:53.050Z,124.90
2022-11-24T06:17:19.427Z,123.90
2022-11-24T06:19:49.403Z,114.00
2022-11-24T06:22:16.970Z,117.20
2022-11-24T06:24:43.363Z,122.40
2022-11-24T06:27:09.812Z,129.30
2022-11-24T06:29:36.310Z,132.90
2022-11-24T06:32:02.909Z,134.50
2022-11-24T06:34:29.551Z,131.80
2022-11-24T06:36:56.385Z,143.90
2022-11-24T06:39:23.008Z,132.30
2022-11-24T06:41:50.212Z,133.80
2022-11-24T06:44:16.794Z,114.00
2022-11-24T06:46:43.395Z,109.40
2022-11-24T06:49:10.188Z,119.10
2022-11-24T06:51:36.739Z,100.60
2022-11-24T06:54:07.773Z,112.10
2022-11-24T06:56:37.992Z,106.50
2022-11-24T06:59:04.769Z,113.50
2022-11-24T07:01:31.721Z,105.40
2022-11-24T07:03:58.982Z,115.80
2022-11-24T07:06:27.739Z,123.50
2022-11-24T07:08:55.374Z,121.50
2022-11-24T07:11:23.714Z,116.00
2022-11-24T07:13:53.843Z,113.90
2022-11-24T07:16:26.079Z,114.40
2022-11-24T07:18:53.611Z,112.70
2022-11-24T07:21:24.895Z,118.90
2022-11-24T07:23:53.875Z,131.50
2022-11-24T07:26:21.582Z,114.30
2022-11-24T07:28:48.907Z,126.30
2022-11-24T07:31:19.143Z,122.10
2022-11-24T07:33:49.914Z,124.20
2022-11-24T07:36:17.281Z,107.80
2022-11-24T07:38:44.317Z,120.20
2022-11-24T07:41:12.957Z,117.20
2022-11-24T07:43:40.229Z,126.40
2022-11-24T07:46:12.397Z,112.70
2022-11-24T07:48:39.614Z,115.30
2022-11-24T07:51:07.645Z,119.30
2022-11-24T07:53:34.831Z,114.10
2022-11-24T07:56:06.429Z,109.20
2022-11-24T07:58:35.992Z,117.70
2022-11-24T08:01:12.664Z,96.30
2022-11-24T08:03:41.984Z,112.60
2022-11-24T08:06:30.522Z,112.50
2022-11-24T08:09:00.731Z,108.40
2022-11-24T08:11:28.039Z,105.00
2022-11-24T08:14:00.195Z,118.00
2022-11-24T08:16:30.116Z,113.00
2022-11-24T08:18:59.623Z,117.60
2022-11-24T08:21:26.418Z,110.00
2022-11-24T08:23:57.305Z,123.90
2022-11-24T08:26:25.478Z,120.10
2022-11-24T08:28:58.342Z,113.40
2022-11-24T08:32:07.409Z,101.50
2022-11-24T08:34:34.306Z,121.40
2022-11-24T08:37:10.976Z,126.00
2022-11-24T08:39:42.817Z,122.80
2022-11-24T08:42:09.914Z,135.20
2022-11-24T08:44:58.696Z,121.20
2022-11-24T08:47:32.357Z,129.40
2022-11-24T08:50:02.886Z,129.60
2022-11-24T08:52:30.234Z,125.70
2022-11-24T08:55:02.930Z,119.60
2022-11-24T08:57:32.944Z,116.00
2022-11-24T09:00:03.937Z,119.30
2022-11-24T09:02:34.736Z,119.80
2022-11-24T09:05:01.918Z,118.60
2022-11-24T09:07:28.584Z,115.80
2022-11-24T09:09:55.805Z,117.30
2022-11-24T09:12:22.690Z,130.20
2022-11-24T09:14:49.349Z,123.20
2022-11-24T09:17:16.416Z,109.00
2022-11-24T09:19:43.459Z,116.90
2022-11-24T09:22:10.224Z,116.10
2022-11-24T09:24:39.658Z,116.50
2022-11-24T09:27:07.780Z,113.60
2022-11-24T09:29:46.391Z,126.00
2022-11-24T09:32:13.063Z,112.50
2022-11-24T09:34:39.770Z,115.30
2022-11-24T09:37:09.059Z,122.00
2022-11-24T09:39:36.362Z,117.80
2022-11-24T09:42:25.912Z,119.40
2022-11-24T09:44:56.305Z,127.40
2022-11-24T09:48:18.628Z,110.00
2022-11-24T09:50:48.929Z,131.10
2022-11-24T09:53:50.537Z,123.00
2022-11-24T09:56:39.711Z,117.70
2022-11-24T09:59:27.857Z,118.50
2022-11-24T10:02:16.888Z,113.20
2022-11-24T10:04:57.380Z,105.50
2022-11-24T10:07:44.493Z,112.90
2022-11-24T10:10:35.523Z,108.50
2022-11-24T10:13:46.226Z,103.90
2022-11-24T10:16:37.293Z,112.00
2022-11-24T10:19:50.682Z,115.70
2022-11-24T10:25:18.672Z,126.40
2022-11-24T10:27:59.453Z,109.10
2022-11-24T10:31:38.722Z,119.10
2022-11-24T10:34:57.007Z,116.10
2022-11-24T10:37:43.749Z,118.00
2022-11-24T10:43:32.884Z,120.00
2022-11-24T10:46:39.062Z,125.40
2022-11-24T10:49:30.336Z,128.50
2022-11-24T10:52:18.590Z,128.10
2022-11-24T10:55:00.952Z,125.00
2022-11-24T10:57:37.850Z,128.90
2022-11-24T11:00:38.372Z,119.80
2022-11-24T11:03:48.853Z,125.70
2022-11-24T11:06:26.247Z,135.50
2022-11-24T11:09:05.553Z,126.10
2022-11-24T11:11:43.894Z,136.70
2022-11-24T11:14:28.789Z,136.20
2022-11-24T11:17:01.960Z,131.60
2022-11-24T11:19:54.109Z,133.90
2022-11-24T11:22:39.683Z,127.80
2022-11-24T11:25:35.146Z,136.90
2022-11-24T11:28:26.680Z,131.80
2022-11-24T11:31:24.010Z,123.30
2022-11-24T11:34:30.008Z,122.90
2022-11-24T11:37:00.952Z,124.60
2022-11-24T11:39:48.601Z,132.80
2022-11-24T11:45:36.847Z,128.70
2022-11-24T11:48:03.497Z,122.70
2022-11-24T11:54:06.365Z,129.60
2022-11-24T11:57:30.558Z,129.40
2022-11-24T12:00:19.674Z,120.10
2022-11-24T12:03:03.828Z,138.50
2022-11-24T12:05:48.068Z,129.00
2022-11-24T12:08:43.988Z,134.50
2022-11-24T12:11:31.265Z,131.50
2022-11-24T12:14:25.643Z,138.60
2022-11-24T12:17:14.464Z,125.40
2022-11-24T12:20:17.717Z,124.40
2022-11-24T12:23:52.233Z,145.60
2022-11-24T12:26:24.884Z,133.00
2022-11-24T12:29:41.273Z,138.60
2022-11-24T12:32:54.447Z,126.80
2022-11-24T12:35:44.623Z,130.80
2022-11-24T12:38:45.386Z,130.90
2022-11-24T12:41:41.714Z,126.70
2022-11-24T12:45:00.632Z,121.60
2022-11-24T12:48:03.463Z,140.30
2022-11-24T12:50:36.500Z,130.30
2022-11-24T12:53:18.099Z,128.50
2022-11-24T12:55:46.272Z,126.90
2022-11-24T12:58:35.843Z,137.80
2022-11-24T13:01:40.675Z,142.00
2022-11-24T13:04:30.481Z,131.70
2022-11-24T13:07:13.843Z,135.10
2022-11-24T13:10:40.468Z,136.20
2022-11-24T13:13:16.526Z,146.30
2022-11-24T13:16:13.205Z,136.10
2022-11-24T13:18:54.264Z,139.20
2022-11-24T13:21:44.407Z,124.80
2022-11-24T13:24:18.450Z,138.60
2022-11-24T13:27:16.282Z,131.10
2022-11-24T13:30:06.794Z,137.10
2022-11-24T13:32:34.211Z,132.80
2022-11-24T13:35:14.425Z,146.50
2022-11-24T13:37:54.243Z,139.30
2022-11-24T13:40:30.903Z,133.50
2022-11-24T13:43:00.735Z,136.60
2022-11-24T13:45:41.255Z,133.70
2022-11-24T13:48:20.945Z,139.90
2022-11-24T13:50:59.968Z,137.90
2022-11-24T13:53:41.910Z,139.90
2022-11-24T13:56:27.905Z,137.90
2022-11-24T13:58:58.233Z,134.90
2022-11-24T14:01:42.631Z,134.90
2022-11-24T14:04:31.434Z,123.50
2022-11-24T14:07:12.162Z,128.50
2022-11-24T14:09:50.546Z,126.10
2022-11-24T14:12:26.144Z,132.90
2022-11-24T14:14:55.878Z,142.20
2022-11-24T14:17:27.670Z,151.00
2022-11-24T14:19:58.258Z,155.40
2022-11-24T14:22:32.297Z,182.20
2022-11-24T14:25:00.725Z,161.50
2022-11-24T14:27:37.697Z,149.20
2022-11-24T14:30:28.496Z,154.90
2022-11-24T14:32:59.809Z,149.30
2022-11-24T14:35:45.628Z,142.30
2022-11-24T14:38:12.479Z,145.60
2022-11-24T14:40:54.556Z,149.50
2022-11-24T14:43:34.526Z,159.80
2022-11-24T14:46:08.664Z,155.30
2022-11-24T14:48:49.212Z,146.60
2022-11-24T14:51:26.690Z,147.40
2022-11-24T14:54:04.487Z,146.60
2022-11-24T14:56:42.353Z,153.30
2022-11-24T14:59:25.485Z,148.10
2022-11-24T15:01:52.509Z,134.40
2022-11-24T15:05:01.417Z,131.00
2022-11-24T15:07:31.645Z,138.20
2022-11-24T15:10:01.518Z,128.20
2022-11-24T15:12:46.224Z,128.40
2022-11-24T15:15:14.172Z,136.60
2022-11-24T15:17:48.407Z,127.70
2022-11-24T15:20:48.440Z,136.60
2022-11-24T15:23:33.021Z,133.00
2022-11-24T15:26:06.574Z,134.00
2022-11-24T15:28:37.352Z,142.40
2022-11-24T15:31:28.681Z,142.80
2022-11-24T15:34:02.737Z,140.60
2022-11-24T15:36:30.175Z,139.90
2022-11-24T15:39:04.300Z,141.30
2022-11-24T15:41:34.741Z,152.80
2022-11-24T15:44:01.899Z,152.70
2022-11-24T15:46:37.212Z,151.70
2022-11-24T15:49:08.054Z,144.80
2022-11-24T15:51:35.977Z,151.50
2022-11-24T15:54:02.674Z,148.70
2022-11-24T15:56:34.616Z,136.20
2022-11-24T15:59:20.419Z,157.30
2022-11-24T16:01:53.141Z,149.90
2022-11-24T16:04:19.715Z,149.10
2022-11-24T16:06:47.370Z,149.00
2022-11-24T16:09:16.219Z,152.90
2022-11-24T16:11:42.990Z,139.90
2022-11-24T16:14:09.489Z,143.10
2022-11-24T16:16:36.185Z,145.70
2022-11-24T16:19:03.360Z,142.20
2022-11-24T16:21:30.184Z,145.60
2022-11-24T16:23:56.865Z,152.20
2022-11-24T16:26:23.360Z,146.50
2022-11-24T16:28:49.957Z,139.10
2022-11-24T16:31:19.081Z,142.50
2022-11-24T16:33:45.725Z,141.50
2022-11-24T16:36:13.342Z,141.00
2022-11-24T16:38:40.046Z,144.00
2022-11-24T16:41:08.301Z,138.70
2022-11-24T16:43:35.078Z,134.40
2022-11-24T16:46:17.048Z,136.70
2022-11-24T16:48:46.168Z,135.70
2022-11-24T16:51:16.329Z,151.00
2022-11-24T16:53:43.507Z,140.10
2022-11-24T16:56:10.893Z,146.00
2022-11-24T16:58:41.447Z,148.40
2022-11-24T17:01:11.311Z,148.80
2022-11-24T17:03:39.261Z,148.50
2022-11-24T17:06:09.779Z,150.30
2022-11-24T17:08:39.131Z,150.50
2022-11-24T17:11:12.278Z,158.90
2022-11-24T17:13:39.962Z,154.20
2022-11-24T17:16:09.950Z,169.70
2022-11-24T17:18:38.326Z,171.90
2022-11-24T17:21:09.686Z,171.30
2022-11-24T17:23:37.486Z,177.20
2022-11-24T17:26:11.209Z,157.70
2022-11-24T17:28:38.275Z,154.30
2022-11-24T17:31:23.067Z,171.80
2022-11-24T17:33:53.223Z,159.90
2022-11-24T17:36:20.802Z,160.90
2022-11-24T17:38:48.937Z,162.70
2022-11-24T17:41:17.006Z,146.70
2022-11-24T17:43:43.911Z,157.10
2022-11-24T17:46:10.839Z,165.10
2022-11-24T17:48:37.467Z,179.00
2022-11-24T17:51:13.732Z,192.80
2022-11-24T17:53:42.223Z,190.10
2022-11-24T17:56:12.868Z,195.80
2022-11-24T17:58:42.841Z,170.90
2022-11-24T18:01:12.111Z,183.20
2022-11-24T18:03:40.463Z,173.20
2022-11-24T18:06:10.837Z,175.40
2022-11-24T18:08:40.433Z,190.60
2022-11-24T18:11:30.437Z,170.30
2022-11-24T18:14:01.900Z,175.70
2022-11-24T18:16:31.558Z,170.10
2022-11-24T18:19:08.238Z,171.10
2022-11-24T18:21:40.851Z,185.60
2022-11-24T18:24:09.866Z,186.10
2022-11-24T18:26:38.671Z,192.20
2022-11-24T18:29:06.198Z,185.10
2022-11-24T18:31:34.717Z,189.60
2022-11-24T18:34:03.859Z,200.40
2022-11-24T18:36:31.184Z,202.50
2022-11-24T18:39:02.991Z,184.80
2022-11-24T18:41:29.577Z,194.40
2022-11-24T18:43:56.117Z,186.80
2022-11-24T18:46:22.916Z,199.40
2022-11-24T18:48:51.369Z,200.30
2022-11-24T18:51:18.028Z,216.20
2022-11-24T18:53:45.665Z,209.70
2022-11-24T18:56:15.805Z,204.00
2022-11-24T18:58:43.089Z,191.70
2022-11-24T19:01:30.541Z,212.50
2022-11-24T19:04:01.385Z,211.50
2022-11-24T19:06:36.917Z,210.90
2022-11-24T19:09:11.091Z,281.20
2022-11-24T19:11:40.274Z,295.10
2022-11-24T19:14:12.852Z,306.30
2022-11-24T19:16:40.804Z,294.20
2022-11-24T19:19:10.012Z,240.20
2022-11-24T19:21:38.851Z,210.80
2022-11-24T19:24:09.495Z,233.60
2022-11-24T19:26:37.389Z,274.80
2022-11-24T19:29:05.686Z,285.10
2022-11-24T19:31:33.760Z,303.50
2022-11-24T19:34:02.316Z,260.20
2022-11-24T19:36:29.610Z,221.30
2022-11-24T19:38:57.596Z,201.10
2022-11-24T19:41:27.937Z,189.60
2022-11-24T19:43:56.056Z,203.00
2022-11-24T19:46:26.552Z,188.20
2022-11-24T19:48:55.464Z,166.90
2022-11-24T19:51:31.803Z,156.20
2022-11-24T19:53:59.690Z,157.80
2022-11-24T19:56:29.314Z,163.50
2022-11-24T19:58:56.864Z,165.00
2022-11-24T20:01:30.348Z,160.90
2022-11-24T20:04:01.941Z,161.20
2022-11-24T20:06:36.147Z,162.60
2022-11-24T20:09:05.530Z,166.40
2022-11-24T20:11:32.111Z,169.90
2022-11-24T20:13:58.599Z,193.20
2022-11-24T20:16:29.223Z,176.80
2022-11-24T20:19:08.805Z,167.40
2022-11-24T20:21:36.982Z,172.30
2022-11-24T20:24:19.310Z,170.00
2022-11-24T20:26:57.591Z,179.70
2022-11-24T20:29:24.303Z,167.50
2022-11-24T20:31:54.399Z,172.40
2022-11-24T20:34:22.082Z,164.50
2022-11-24T20:36:49.062Z,169.50
2022-11-24T20:39:24.618Z,175.10
2022-11-24T20:41:51.959Z,160.20
2022-11-24T20:44:21.387Z,172.80
2022-11-24T20:46:48.618Z,159.10
2022-11-24T20:49:18.552Z,153.70
2022-11-24T20:51:48.499Z,192.90
2022-11-24T20:54:17.443Z,180.00
2022-11-24T20:56:45.772Z,199.90
2022-11-24T20:59:23.593Z,206.90
2022-11-24T21:01:51.456Z,206.40
2022-11-24T21:04:24.673Z,189.40
2022-11-24T21:06:51.461Z,197.50
2022-11-24T21:09:18.667Z,183.90
2022-11-24T21:11:45.400Z,176.60
2022-11-24T21:14:12.161Z,182.30
2022-11-24T21:16:40.735Z,188.00
2022-11-24T21:19:11.707Z,193.10
2022-11-24T21:21:40.439Z,177.40
2022-11-24T21:24:12.588Z,175.60
2022-11-24T21:26:39.975Z,165.00
2022-11-24T21:29:06.836Z,172.40
2022-11-24T21:31:38.416Z,173.50
2022-11-24T21:34:06.048Z,166.80
2022-11-24T21:36:34.348Z,155.90
2022-11-24T21:39:02.558Z,160.90
2022-11-24T21:41:32.630Z,172.80
2022-11-24T21:43:59.210Z,162.40
2022-11-24T21:46:27.762Z,165.20
2022-11-24T21:48:54.209Z,188.30
2022-11-24T21:51:21.277Z,178.80
2022-11-24T21:53:48.418Z,183.70
2022-11-24T21:56:20.801Z,171.20
2022-11-24T22:01:22.749Z,176.90
2022-11-24T22:03:49.593Z,170.60
2022-11-24T22:06:18.810Z,171.90
2022-11-24T22:08:47.030Z,172.30
2022-11-24T22:11:18.921Z,178.20
2022-11-24T22:13:46.519Z,167.30
2022-11-24T22:16:19.838Z,165.30
2022-11-24T22:18:46.777Z,180.50
2022-11-24T22:21:16.183Z,167.10
2022-11-24T22:23:42.893Z,161.00
2022-11-24T22:26:16.497Z,155.30
2022-11-24T22:28:43.928Z,170.40
2022-11-24T22:31:14.281Z,174.40
2022-11-24T22:33:41.475Z,159.50
2022-11-24T22:36:09.762Z,168.10
2022-11-24T22:38:36.530Z,170.50
2022-11-24T22:41:08.911Z,170.00
2022-11-24T22:43:36.810Z,171.40
2022-11-24T22:46:08.775Z,169.00
2022-11-24T22:48:39.300Z,181.30
2022-11-24T22:51:15.667Z,175.70
2022-11-24T22:53:47.936Z,177.20
2022-11-24T22:56:15.204Z,177.50
2022-11-24T22:58:42.555Z,188.90
2022-11-24T23:01:18.590Z,168.10
2022-11-24T23:03:46.149Z,168.60
2022-11-24T23:06:19.785Z,159.60
2022-11-24T23:08:47.157Z,172.10
2022-11-24T23:11:14.761Z,152.70
2022-11-24T23:13:41.629Z,170.80
2022-11-24T23:16:12.729Z,159.10
2022-11-24T23:18:39.869Z,155.90
2022-11-24T23:21:27.344Z,162.90
2022-11-24T23:23:54.509Z,159.20
2022-11-24T23:26:27.770Z,156.50
2022-11-24T23:28:54.459Z,159.60
2022-11-24T23:31:26.564Z,156.30
2022-11-24T23:33:53.417Z,151.50
2022-11-24T23:36:21.098Z,162.40
2022-11-24T23:38:48.176Z,157.10
2022-11-24T23:41:21.523Z,143.80
2022-11-24T23:43:47.969Z,147.70
2022-11-24T23:46:20.975Z,141.70
2022-11-24T23:48:50.832Z,120.80
2022-11-24T23:51:25.676Z,126.20
2022-11-24T23:53:53.213Z,118.50
2022-11-24T23:56:26.414Z,143.90
2022-11-24T23:58:53.029Z,138.60
